sensor_id;sensor_type;location;lat;lon;timestamp;P1;durP1;ratioP1;P2;durP2;ratioP2
13197;SDS011;6664;52.514;13.440;2023-06-22T00:00:13;11.23;;;7.93;;
13197;SDS011;6664;52.514;13.440;2023-06-22T00:03:00;10.83;;;7.70;;
13197;SDS011;6664;52.514;13.440;2023-06-22T00:05:48;9.83;;;8.03;;
13197;SDS011;6664;52.514;13.440;2023-06-22T00:08:36;7.80;;;6.83;;
13197;SDS011;6664;52.514;13.440;2023-06-22T00:11:22;9.63;;;8.10;;
13197;SDS011;6664;52.514;13.440;2023-06-22T00:14:10;8.50;;;6.90;;
13197;SDS011;6664;52.514;13.440;2023-06-22T00:16:56;12.33;;;6.83;;
13197;SDS011;6664;52.514;13.440;2023-06-22T00:19:42;9.53;;;7.43;;
13197;SDS011;6664;52.514;13.440;2023-06-22T00:22:27;9.30;;;7.90;;
13197;SDS011;6664;52.514;13.440;2023-06-22T00:25:13;9.47;;;8.40;;
13197;SDS011;6664;52.514;13.440;2023-06-22T00:27:59;7.93;;;6.90;;
13197;SDS011;6664;52.514;13.440;2023-06-22T00:30:45;7.87;;;6.93;;
13197;SDS011;6664;52.514;13.440;2023-06-22T00:33:31;11.50;;;7.80;;
13197;SDS011;6664;52.514;13.440;2023-06-22T00:36:16;9.67;;;7.60;;
13197;SDS011;6664;52.514;13.440;2023-06-22T00:39:04;10.73;;;9.50;;
13197;SDS011;6664;52.514;13.440;2023-06-22T00:41:52;10.17;;;7.60;;
13197;SDS011;6664;52.514;13.440;2023-06-22T00:44:38;8.00;;;6.80;;
13197;SDS011;6664;52.514;13.440;2023-06-22T00:47:23;10.33;;;8.40;;
13197;SDS011;6664;52.514;13.440;2023-06-22T00:50:13;8.67;;;7.27;;
13197;SDS011;6664;52.514;13.440;2023-06-22T00:53:06;11.07;;;8.00;;
13197;SDS011;6664;52.514;13.440;2023-06-22T00:55:54;7.43;;;6.73;;
13197;SDS011;6664;52.514;13.440;2023-06-22T00:58:40;9.00;;;7.67;;
13197;SDS011;6664;52.514;13.440;2023-06-22T01:01:26;10.53;;;8.17;;
13197;SDS011;6664;52.514;13.440;2023-06-22T01:04:12;8.63;;;7.70;;
13197;SDS011;6664;52.514;13.440;2023-06-22T01:07:00;9.97;;;7.90;;
13197;SDS011;6664;52.514;13.440;2023-06-22T01:12:55;13.27;;;8.20;;
13197;SDS011;6664;52.514;13.440;2023-06-22T01:19:21;9.90;;;7.60;;
13197;SDS011;6664;52.514;13.440;2023-06-22T01:22:33;9.80;;;8.03;;
13197;SDS011;6664;52.514;13.440;2023-06-22T01:25:36;9.40;;;7.60;;
13197;SDS011;6664;52.514;13.440;2023-06-22T01:31:34;9.60;;;8.00;;
13197;SDS011;6664;52.514;13.440;2023-06-22T01:34:20;11.10;;;7.93;;
13197;SDS011;6664;52.514;13.440;2023-06-22T01:37:07;8.60;;;7.70;;
13197;SDS011;6664;52.514;13.440;2023-06-22T01:39:56;10.20;;;8.10;;
13197;SDS011;6664;52.514;13.440;2023-06-22T01:42:42;10.93;;;8.70;;
13197;SDS011;6664;52.514;13.440;2023-06-22T01:45:29;13.83;;;8.47;;
13197;SDS011;6664;52.514;13.440;2023-06-22T01:48:15;10.43;;;8.27;;
13197;SDS011;6664;52.514;13.440;2023-06-22T01:51:01;8.17;;;7.37;;
13197;SDS011;6664;52.514;13.440;2023-06-22T01:53:47;11.33;;;8.73;;
13197;SDS011;6664;52.514;13.440;2023-06-22T01:56:35;10.27;;;7.90;;
13197;SDS011;6664;52.514;13.440;2023-06-22T01:59:25;10.63;;;8.97;;
13197;SDS011;6664;52.514;13.440;2023-06-22T02:02:11;13.47;;;9.50;;
13197;SDS011;6664;52.514;13.440;2023-06-22T02:05:07;12.57;;;9.17;;
13197;SDS011;6664;52.514;13.440;2023-06-22T02:08:17;13.80;;;9.73;;
13197;SDS011;6664;52.514;13.440;2023-06-22T02:11:05;10.97;;;8.07;;
13197;SDS011;6664;52.514;13.440;2023-06-22T02:13:52;9.83;;;8.83;;
13197;SDS011;6664;52.514;13.440;2023-06-22T02:16:38;9.77;;;8.17;;
13197;SDS011;6664;52.514;13.440;2023-06-22T02:19:26;13.50;;;8.00;;
13197;SDS011;6664;52.514;13.440;2023-06-22T02:22:12;12.20;;;9.10;;
13197;SDS011;6664;52.514;13.440;2023-06-22T02:25:00;18.20;;;9.13;;
13197;SDS011;6664;52.514;13.440;2023-06-22T02:27:46;13.10;;;9.07;;
13197;SDS011;6664;52.514;13.440;2023-06-22T02:30:34;12.20;;;8.10;;
13197;SDS011;6664;52.514;13.440;2023-06-22T02:33:19;9.60;;;7.97;;
13197;SDS011;6664;52.514;13.440;2023-06-22T02:36:08;9.37;;;8.37;;
13197;SDS011;6664;52.514;13.440;2023-06-22T02:38:54;11.70;;;9.43;;
13197;SDS011;6664;52.514;13.440;2023-06-22T02:41:45;11.63;;;8.77;;
13197;SDS011;6664;52.514;13.440;2023-06-22T02:44:31;12.30;;;9.43;;
13197;SDS011;6664;52.514;13.440;2023-06-22T02:47:22;16.67;;;10.20;;
13197;SDS011;6664;52.514;13.440;2023-06-22T02:50:07;18.73;;;9.77;;
13197;SDS011;6664;52.514;13.440;2023-06-22T02:52:55;12.77;;;10.13;;
13197;SDS011;6664;52.514;13.440;2023-06-22T02:55:40;12.23;;;9.40;;
13197;SDS011;6664;52.514;13.440;2023-06-22T02:58:26;18.83;;;10.93;;
13197;SDS011;6664;52.514;13.440;2023-06-22T03:01:12;15.73;;;10.37;;
13197;SDS011;6664;52.514;13.440;2023-06-22T03:03:59;14.90;;;9.70;;
13197;SDS011;6664;52.514;13.440;2023-06-22T03:06:45;13.80;;;8.87;;
13197;SDS011;6664;52.514;13.440;2023-06-22T03:09:36;12.90;;;9.70;;
13197;SDS011;6664;52.514;13.440;2023-06-22T03:12:21;14.33;;;9.57;;
13197;SDS011;6664;52.514;13.440;2023-06-22T03:15:07;11.00;;;8.73;;
13197;SDS011;6664;52.514;13.440;2023-06-22T03:17:57;8.33;;;7.17;;
13197;SDS011;6664;52.514;13.440;2023-06-22T03:20:45;11.43;;;7.10;;
13197;SDS011;6664;52.514;13.440;2023-06-22T03:23:31;9.83;;;8.13;;
13197;SDS011;6664;52.514;13.440;2023-06-22T03:26:19;10.60;;;7.87;;
13197;SDS011;6664;52.514;13.440;2023-06-22T03:29:04;9.10;;;6.80;;
13197;SDS011;6664;52.514;13.440;2023-06-22T03:31:50;9.83;;;6.43;;
13197;SDS011;6664;52.514;13.440;2023-06-22T03:34:36;7.93;;;6.47;;
13197;SDS011;6664;52.514;13.440;2023-06-22T03:37:21;9.10;;;6.10;;
13197;SDS011;6664;52.514;13.440;2023-06-22T03:40:09;6.50;;;5.43;;
13197;SDS011;6664;52.514;13.440;2023-06-22T03:42:55;8.43;;;5.30;;
13197;SDS011;6664;52.514;13.440;2023-06-22T03:45:41;10.93;;;5.97;;
13197;SDS011;6664;52.514;13.440;2023-06-22T03:48:26;6.07;;;5.50;;
13197;SDS011;6664;52.514;13.440;2023-06-22T03:51:11;9.93;;;5.67;;
13197;SDS011;6664;52.514;13.440;2023-06-22T03:53:58;8.30;;;6.03;;
13197;SDS011;6664;52.514;13.440;2023-06-22T03:56:43;6.43;;;5.57;;
13197;SDS011;6664;52.514;13.440;2023-06-22T03:59:29;7.80;;;5.60;;
13197;SDS011;6664;52.514;13.440;2023-06-22T04:02:14;5.83;;;5.13;;
13197;SDS011;6664;52.514;13.440;2023-06-22T04:05:00;8.40;;;5.07;;
13197;SDS011;6664;52.514;13.440;2023-06-22T04:07:49;8.20;;;5.80;;
13197;SDS011;6664;52.514;13.440;2023-06-22T04:10:34;14.40;;;5.53;;
13197;SDS011;6664;52.514;13.440;2023-06-22T04:13:20;7.83;;;5.43;;
13197;SDS011;6664;52.514;13.440;2023-06-22T04:16:08;4.90;;;4.40;;
13197;SDS011;6664;52.514;13.440;2023-06-22T04:18:53;6.73;;;4.60;;
13197;SDS011;6664;52.514;13.440;2023-06-22T04:21:42;4.23;;;3.93;;
13197;SDS011;6664;52.514;13.440;2023-06-22T04:24:29;4.30;;;3.93;;
13197;SDS011;6664;52.514;13.440;2023-06-22T04:27:15;4.77;;;4.20;;
13197;SDS011;6664;52.514;13.440;2023-06-22T04:30:00;4.57;;;4.00;;
13197;SDS011;6664;52.514;13.440;2023-06-22T04:32:46;4.37;;;3.90;;
13197;SDS011;6664;52.514;13.440;2023-06-22T04:35:41;6.60;;;4.37;;
13197;SDS011;6664;52.514;13.440;2023-06-22T04:38:27;3.30;;;3.00;;
13197;SDS011;6664;52.514;13.440;2023-06-22T04:41:13;5.00;;;4.10;;
13197;SDS011;6664;52.514;13.440;2023-06-22T04:44:18;4.50;;;3.43;;
13197;SDS011;6664;52.514;13.440;2023-06-22T04:47:10;3.70;;;3.40;;
13197;SDS011;6664;52.514;13.440;2023-06-22T04:49:55;7.60;;;4.63;;
13197;SDS011;6664;52.514;13.440;2023-06-22T04:52:41;5.00;;;3.80;;
13197;SDS011;6664;52.514;13.440;2023-06-22T04:55:26;5.57;;;3.67;;
13197;SDS011;6664;52.514;13.440;2023-06-22T04:58:11;4.13;;;3.27;;
13197;SDS011;6664;52.514;13.440;2023-06-22T05:00:58;5.47;;;3.17;;
13197;SDS011;6664;52.514;13.440;2023-06-22T05:03:43;5.60;;;3.07;;
13197;SDS011;6664;52.514;13.440;2023-06-22T05:06:30;6.23;;;3.27;;
13197;SDS011;6664;52.514;13.440;2023-06-22T05:09:16;5.90;;;4.07;;
13197;SDS011;6664;52.514;13.440;2023-06-22T05:12:02;5.27;;;3.30;;
13197;SDS011;6664;52.514;13.440;2023-06-22T05:14:55;4.20;;;2.93;;
13197;SDS011;6664;52.514;13.440;2023-06-22T05:17:44;4.73;;;3.50;;
13197;SDS011;6664;52.514;13.440;2023-06-22T05:20:32;3.37;;;3.10;;
13197;SDS011;6664;52.514;13.440;2023-06-22T05:23:20;4.03;;;3.50;;
13197;SDS011;6664;52.514;13.440;2023-06-22T05:26:06;4.23;;;3.67;;
13197;SDS011;6664;52.514;13.440;2023-06-22T05:28:55;4.30;;;3.30;;
13197;SDS011;6664;52.514;13.440;2023-06-22T05:31:43;3.73;;;3.30;;
13197;SDS011;6664;52.514;13.440;2023-06-22T05:34:29;4.10;;;2.90;;
13197;SDS011;6664;52.514;13.440;2023-06-22T05:37:14;4.07;;;3.67;;
13197;SDS011;6664;52.514;13.440;2023-06-22T05:39:59;3.20;;;2.87;;
13197;SDS011;6664;52.514;13.440;2023-06-22T05:42:47;4.00;;;3.17;;
13197;SDS011;6664;52.514;13.440;2023-06-22T05:45:33;3.20;;;3.00;;
13197;SDS011;6664;52.514;13.440;2023-06-22T05:48:19;5.70;;;3.60;;
13197;SDS011;6664;52.514;13.440;2023-06-22T05:51:04;3.63;;;3.20;;
13197;SDS011;6664;52.514;13.440;2023-06-22T05:53:50;3.70;;;3.40;;
13197;SDS011;6664;52.514;13.440;2023-06-22T05:56:38;3.93;;;3.30;;
13197;SDS011;6664;52.514;13.440;2023-06-22T05:59:23;4.40;;;3.87;;
13197;SDS011;6664;52.514;13.440;2023-06-22T06:02:09;4.13;;;3.70;;
13197;SDS011;6664;52.514;13.440;2023-06-22T06:04:55;4.40;;;3.80;;
13197;SDS011;6664;52.514;13.440;2023-06-22T06:07:41;4.77;;;3.47;;
13197;SDS011;6664;52.514;13.440;2023-06-22T06:10:27;4.50;;;2.27;;
13197;SDS011;6664;52.514;13.440;2023-06-22T06:13:15;7.03;;;3.53;;
13197;SDS011;6664;52.514;13.440;2023-06-22T06:16:00;4.13;;;3.10;;
13197;SDS011;6664;52.514;13.440;2023-06-22T06:18:48;7.00;;;3.30;;
13197;SDS011;6664;52.514;13.440;2023-06-22T06:21:35;3.30;;;2.90;;
13197;SDS011;6664;52.514;13.440;2023-06-22T06:24:21;3.47;;;2.70;;
13197;SDS011;6664;52.514;13.440;2023-06-22T06:27:07;3.47;;;3.13;;
13197;SDS011;6664;52.514;13.440;2023-06-22T06:29:56;3.10;;;2.83;;
13197;SDS011;6664;52.514;13.440;2023-06-22T06:32:48;5.30;;;2.83;;
13197;SDS011;6664;52.514;13.440;2023-06-22T06:35:35;2.93;;;2.47;;
13197;SDS011;6664;52.514;13.440;2023-06-22T06:38:23;3.67;;;3.13;;
13197;SDS011;6664;52.514;13.440;2023-06-22T06:41:10;3.03;;;2.57;;
13197;SDS011;6664;52.514;13.440;2023-06-22T06:43:56;6.23;;;2.50;;
13197;SDS011;6664;52.514;13.440;2023-06-22T06:46:41;3.07;;;2.43;;
13197;SDS011;6664;52.514;13.440;2023-06-22T06:49:27;3.53;;;2.60;;
13197;SDS011;6664;52.514;13.440;2023-06-22T06:52:16;4.37;;;2.43;;
13197;SDS011;6664;52.514;13.440;2023-06-22T06:55:04;2.40;;;2.20;;
13197;SDS011;6664;52.514;13.440;2023-06-22T06:57:53;2.47;;;2.27;;
13197;SDS011;6664;52.514;13.440;2023-06-22T07:00:39;2.13;;;2.03;;
13197;SDS011;6664;52.514;13.440;2023-06-22T07:03:25;3.57;;;1.97;;
13197;SDS011;6664;52.514;13.440;2023-06-22T07:06:10;2.63;;;2.30;;
13197;SDS011;6664;52.514;13.440;2023-06-22T07:08:56;3.13;;;2.30;;
13197;SDS011;6664;52.514;13.440;2023-06-22T07:11:44;2.67;;;2.20;;
13197;SDS011;6664;52.514;13.440;2023-06-22T07:14:29;2.17;;;1.97;;
13197;SDS011;6664;52.514;13.440;2023-06-22T07:17:16;4.37;;;2.97;;
13197;SDS011;6664;52.514;13.440;2023-06-22T07:20:02;3.00;;;2.00;;
13197;SDS011;6664;52.514;13.440;2023-06-22T07:22:53;2.57;;;2.37;;
13197;SDS011;6664;52.514;13.440;2023-06-22T07:25:39;3.03;;;2.43;;
13197;SDS011;6664;52.514;13.440;2023-06-22T07:28:24;2.60;;;2.40;;
13197;SDS011;6664;52.514;13.440;2023-06-22T07:31:12;3.03;;;2.63;;
13197;SDS011;6664;52.514;13.440;2023-06-22T07:34:00;2.77;;;2.07;;
13197;SDS011;6664;52.514;13.440;2023-06-22T07:36:46;2.10;;;1.90;;
13197;SDS011;6664;52.514;13.440;2023-06-22T07:39:32;2.10;;;1.73;;
13197;SDS011;6664;52.514;13.440;2023-06-22T07:42:19;1.87;;;1.77;;
13197;SDS011;6664;52.514;13.440;2023-06-22T07:45:07;1.90;;;1.70;;
13197;SDS011;6664;52.514;13.440;2023-06-22T07:47:53;2.70;;;1.70;;
13197;SDS011;6664;52.514;13.440;2023-06-22T07:50:41;9.10;;;1.80;;
13197;SDS011;6664;52.514;13.440;2023-06-22T07:53:27;2.03;;;1.83;;
13197;SDS011;6664;52.514;13.440;2023-06-22T07:56:13;1.93;;;1.83;;
13197;SDS011;6664;52.514;13.440;2023-06-22T07:59:05;1.73;;;1.63;;
13197;SDS011;6664;52.514;13.440;2023-06-22T08:01:54;1.60;;;1.50;;
13197;SDS011;6664;52.514;13.440;2023-06-22T08:04:40;3.47;;;2.00;;
13197;SDS011;6664;52.514;13.440;2023-06-22T08:07:28;2.70;;;1.77;;
13197;SDS011;6664;52.514;13.440;2023-06-22T08:10:14;1.97;;;1.50;;
13197;SDS011;6664;52.514;13.440;2023-06-22T08:13:02;2.10;;;2.00;;
13197;SDS011;6664;52.514;13.440;2023-06-22T08:15:50;2.80;;;1.80;;
13197;SDS011;6664;52.514;13.440;2023-06-22T08:18:35;2.97;;;1.90;;
13197;SDS011;6664;52.514;13.440;2023-06-22T08:21:23;1.70;;;1.60;;
13197;SDS011;6664;52.514;13.440;2023-06-22T08:24:09;7.63;;;1.70;;
13197;SDS011;6664;52.514;13.440;2023-06-22T08:26:58;2.73;;;1.60;;
13197;SDS011;6664;52.514;13.440;2023-06-22T08:29:44;2.60;;;1.70;;
13197;SDS011;6664;52.514;13.440;2023-06-22T08:32:30;4.17;;;2.00;;
13197;SDS011;6664;52.514;13.440;2023-06-22T08:35:18;2.43;;;1.70;;
13197;SDS011;6664;52.514;13.440;2023-06-22T08:38:07;1.73;;;1.63;;
13197;SDS011;6664;52.514;13.440;2023-06-22T08:40:54;5.40;;;2.03;;
13197;SDS011;6664;52.514;13.440;2023-06-22T08:43:42;2.60;;;2.27;;
13197;SDS011;6664;52.514;13.440;2023-06-22T08:46:29;2.63;;;2.43;;
13197;SDS011;6664;52.514;13.440;2023-06-22T08:49:20;2.70;;;2.50;;
13197;SDS011;6664;52.514;13.440;2023-06-22T08:52:05;2.70;;;2.50;;
13197;SDS011;6664;52.514;13.440;2023-06-22T08:54:52;2.40;;;2.20;;
13197;SDS011;6664;52.514;13.440;2023-06-22T08:57:38;6.80;;;2.40;;
13197;SDS011;6664;52.514;13.440;2023-06-22T09:00:27;2.20;;;2.00;;
13197;SDS011;6664;52.514;13.440;2023-06-22T09:03:14;1.83;;;1.73;;
13197;SDS011;6664;52.514;13.440;2023-06-22T09:06:00;2.00;;;1.80;;
13197;SDS011;6664;52.514;13.440;2023-06-22T09:08:46;3.57;;;2.23;;
13197;SDS011;6664;52.514;13.440;2023-06-22T09:11:34;5.27;;;2.30;;
13197;SDS011;6664;52.514;13.440;2023-06-22T09:14:19;5.17;;;2.07;;
13197;SDS011;6664;52.514;13.440;2023-06-22T09:17:05;2.60;;;2.00;;
13197;SDS011;6664;52.514;13.440;2023-06-22T09:19:50;2.20;;;2.10;;
13197;SDS011;6664;52.514;13.440;2023-06-22T09:22:36;4.60;;;2.03;;
13197;SDS011;6664;52.514;13.440;2023-06-22T09:25:25;1.70;;;1.60;;
13197;SDS011;6664;52.514;13.440;2023-06-22T09:28:10;2.23;;;2.03;;
13197;SDS011;6664;52.514;13.440;2023-06-22T09:30:56;2.23;;;2.03;;
13197;SDS011;6664;52.514;13.440;2023-06-22T09:33:43;3.00;;;2.03;;
13197;SDS011;6664;52.514;13.440;2023-06-22T09:36:28;1.67;;;1.57;;
13197;SDS011;6664;52.514;13.440;2023-06-22T09:39:14;1.57;;;1.47;;
13197;SDS011;6664;52.514;13.440;2023-06-22T09:42:00;1.67;;;1.57;;
13197;SDS011;6664;52.514;13.440;2023-06-22T09:44:45;1.50;;;1.40;;
13197;SDS011;6664;52.514;13.440;2023-06-22T09:47:31;2.47;;;1.73;;
13197;SDS011;6664;52.514;13.440;2023-06-22T09:50:17;9.60;;;2.30;;
13197;SDS011;6664;52.514;13.440;2023-06-22T09:53:02;2.00;;;1.90;;
13197;SDS011;6664;52.514;13.440;2023-06-22T09:55:50;7.63;;;1.90;;
13197;SDS011;6664;52.514;13.440;2023-06-22T09:58:38;2.70;;;2.50;;
13197;SDS011;6664;52.514;13.440;2023-06-22T10:01:24;1.80;;;1.67;;
13197;SDS011;6664;52.514;13.440;2023-06-22T10:04:10;2.20;;;2.00;;
13197;SDS011;6664;52.514;13.440;2023-06-22T10:06:55;1.90;;;1.73;;
13197;SDS011;6664;52.514;13.440;2023-06-22T10:09:41;1.90;;;1.80;;
13197;SDS011;6664;52.514;13.440;2023-06-22T10:12:27;1.90;;;1.80;;
13197;SDS011;6664;52.514;13.440;2023-06-22T10:15:16;2.40;;;2.20;;
13197;SDS011;6664;52.514;13.440;2023-06-22T10:18:02;2.20;;;2.10;;
13197;SDS011;6664;52.514;13.440;2023-06-22T10:20:49;2.53;;;2.13;;
13197;SDS011;6664;52.514;13.440;2023-06-22T10:23:38;1.93;;;1.83;;
13197;SDS011;6664;52.514;13.440;2023-06-22T10:26:24;2.60;;;1.80;;
13197;SDS011;6664;52.514;13.440;2023-06-22T10:29:09;1.77;;;1.67;;
13197;SDS011;6664;52.514;13.440;2023-06-22T10:32:01;1.90;;;1.80;;
13197;SDS011;6664;52.514;13.440;2023-06-22T10:34:46;3.37;;;2.27;;
13197;SDS011;6664;52.514;13.440;2023-06-22T10:37:34;2.30;;;2.10;;
13197;SDS011;6664;52.514;13.440;2023-06-22T10:40:20;6.10;;;2.57;;
13197;SDS011;6664;52.514;13.440;2023-06-22T10:43:08;2.70;;;2.50;;
13197;SDS011;6664;52.514;13.440;2023-06-22T10:45:56;6.43;;;2.27;;
13197;SDS011;6664;52.514;13.440;2023-06-22T10:48:41;2.53;;;2.33;;
13197;SDS011;6664;52.514;13.440;2023-06-22T10:51:27;2.43;;;2.27;;
13197;SDS011;6664;52.514;13.440;2023-06-22T10:54:13;2.20;;;2.10;;
13197;SDS011;6664;52.514;13.440;2023-06-22T10:56:58;1.83;;;1.70;;
13197;SDS011;6664;52.514;13.440;2023-06-22T10:59:44;2.43;;;2.30;;
13197;SDS011;6664;52.514;13.440;2023-06-22T11:02:30;11.77;;;2.40;;
13197;SDS011;6664;52.514;13.440;2023-06-22T11:05:16;2.40;;;2.17;;
13197;SDS011;6664;52.514;13.440;2023-06-22T11:08:01;2.30;;;2.10;;
13197;SDS011;6664;52.514;13.440;2023-06-22T11:10:47;2.27;;;2.17;;
13197;SDS011;6664;52.514;13.440;2023-06-22T11:13:33;2.53;;;2.43;;
13197;SDS011;6664;52.514;13.440;2023-06-22T11:16:19;3.60;;;2.43;;
13197;SDS011;6664;52.514;13.440;2023-06-22T11:19:06;2.50;;;2.30;;
13197;SDS011;6664;52.514;13.440;2023-06-22T11:21:52;1.97;;;1.87;;
13197;SDS011;6664;52.514;13.440;2023-06-22T11:24:40;3.23;;;2.53;;
13197;SDS011;6664;52.514;13.440;2023-06-22T11:27:28;2.40;;;2.20;;
13197;SDS011;6664;52.514;13.440;2023-06-22T11:30:13;3.77;;;2.40;;
13197;SDS011;6664;52.514;13.440;2023-06-22T11:32:59;2.37;;;2.10;;
13197;SDS011;6664;52.514;13.440;2023-06-22T11:35:45;2.60;;;2.40;;
13197;SDS011;6664;52.514;13.440;2023-06-22T11:38:31;2.10;;;2.00;;
13197;SDS011;6664;52.514;13.440;2023-06-22T11:41:17;2.93;;;2.57;;
13197;SDS011;6664;52.514;13.440;2023-06-22T11:44:02;2.70;;;2.10;;
13197;SDS011;6664;52.514;13.440;2023-06-22T11:46:49;1.93;;;1.83;;
13197;SDS011;6664;52.514;13.440;2023-06-22T11:49:35;2.13;;;1.97;;
13197;SDS011;6664;52.514;13.440;2023-06-22T11:52:21;2.27;;;2.17;;
13197;SDS011;6664;52.514;13.440;2023-06-22T11:55:06;1.90;;;1.80;;
13197;SDS011;6664;52.514;13.440;2023-06-22T11:57:56;2.27;;;2.17;;
13197;SDS011;6664;52.514;13.440;2023-06-22T12:00:44;2.07;;;1.77;;
13197;SDS011;6664;52.514;13.440;2023-06-22T12:03:36;4.23;;;1.70;;
13197;SDS011;6664;52.514;13.440;2023-06-22T12:06:21;2.13;;;2.03;;
13197;SDS011;6664;52.514;13.440;2023-06-22T12:09:10;2.43;;;1.80;;
13197;SDS011;6664;52.514;13.440;2023-06-22T12:11:58;3.53;;;2.30;;
13197;SDS011;6664;52.514;13.440;2023-06-22T12:14:44;1.77;;;1.67;;
13197;SDS011;6664;52.514;13.440;2023-06-22T12:17:29;2.50;;;2.30;;
13197;SDS011;6664;52.514;13.440;2023-06-22T12:20:15;2.07;;;1.97;;
13197;SDS011;6664;52.514;13.440;2023-06-22T12:23:01;2.40;;;2.20;;
13197;SDS011;6664;52.514;13.440;2023-06-22T12:25:50;1.97;;;1.87;;
13197;SDS011;6664;52.514;13.440;2023-06-22T12:28:38;2.53;;;2.33;;
13197;SDS011;6664;52.514;13.440;2023-06-22T12:31:24;3.00;;;2.50;;
13197;SDS011;6664;52.514;13.440;2023-06-22T12:34:09;1.90;;;1.80;;
13197;SDS011;6664;52.514;13.440;2023-06-22T12:37:00;2.70;;;2.23;;
13197;SDS011;6664;52.514;13.440;2023-06-22T12:39:45;2.65;;;2.30;;
13197;SDS011;6664;52.514;13.440;2023-06-22T12:42:31;7.10;;;2.03;;
13197;SDS011;6664;52.514;13.440;2023-06-22T12:45:19;1.60;;;1.50;;
13197;SDS011;6664;52.514;13.440;2023-06-22T12:48:09;1.95;;;1.85;;
13197;SDS011;6664;52.514;13.440;2023-06-22T12:50:55;1.38;;;1.38;;
13197;SDS011;6664;52.514;13.440;2023-06-22T12:53:41;1.70;;;1.65;;
13197;SDS011;6664;52.514;13.440;2023-06-22T12:56:29;5.20;;;1.60;;
13197;SDS011;6664;52.514;13.440;2023-06-22T12:59:15;1.33;;;1.33;;
13197;SDS011;6664;52.514;13.440;2023-06-22T13:02:03;1.33;;;1.33;;
13197;SDS011;6664;52.514;13.440;2023-06-22T13:04:49;1.40;;;1.40;;
13197;SDS011;6664;52.514;13.440;2023-06-22T13:07:34;3.90;;;1.65;;
13197;SDS011;6664;52.514;13.440;2023-06-22T13:10:20;1.67;;;1.52;;
13197;SDS011;6664;52.514;13.440;2023-06-22T13:13:05;1.80;;;1.70;;
13197;SDS011;6664;52.514;13.440;2023-06-22T13:15:51;1.60;;;1.45;;
13197;SDS011;6664;52.514;13.440;2023-06-22T13:18:37;1.40;;;1.40;;
13197;SDS011;6664;52.514;13.440;2023-06-22T13:21:24;1.92;;;1.83;;
13197;SDS011;6664;52.514;13.440;2023-06-22T13:24:09;1.65;;;1.40;;
13197;SDS011;6664;52.514;13.440;2023-06-22T13:26:55;2.30;;;1.50;;
13197;SDS011;6664;52.514;13.440;2023-06-22T13:29:40;1.67;;;1.58;;
13197;SDS011;6664;52.514;13.440;2023-06-22T13:32:26;1.42;;;1.42;;
13197;SDS011;6664;52.514;13.440;2023-06-22T13:35:12;1.10;;;1.10;;
13197;SDS011;6664;52.514;13.440;2023-06-22T13:37:58;1.15;;;1.15;;
13197;SDS011;6664;52.514;13.440;2023-06-22T13:40:44;1.15;;;1.15;;
13197;SDS011;6664;52.514;13.440;2023-06-22T13:43:30;1.30;;;1.30;;
13197;SDS011;6664;52.514;13.440;2023-06-22T13:46:16;1.13;;;1.13;;
13197;SDS011;6664;52.514;13.440;2023-06-22T13:49:02;1.58;;;1.58;;
13197;SDS011;6664;52.514;13.440;2023-06-22T13:51:51;1.30;;;1.30;;
13197;SDS011;6664;52.514;13.440;2023-06-22T13:54:44;1.48;;;1.48;;
13197;SDS011;6664;52.514;13.440;2023-06-22T13:57:30;1.67;;;1.30;;
13197;SDS011;6664;52.514;13.440;2023-06-22T14:00:16;1.58;;;1.50;;
13197;SDS011;6664;52.514;13.440;2023-06-22T14:03:02;1.55;;;1.45;;
13197;SDS011;6664;52.514;13.440;2023-06-22T14:05:48;1.50;;;1.40;;
13197;SDS011;6664;52.514;13.440;2023-06-22T14:08:34;1.25;;;1.25;;
13197;SDS011;6664;52.514;13.440;2023-06-22T14:11:26;1.55;;;1.55;;
13197;SDS011;6664;52.514;13.440;2023-06-22T14:14:14;1.52;;;1.42;;
13197;SDS011;6664;52.514;13.440;2023-06-22T14:17:00;1.42;;;1.33;;
13197;SDS011;6664;52.514;13.440;2023-06-22T14:19:46;1.25;;;1.25;;
13197;SDS011;6664;52.514;13.440;2023-06-22T14:22:35;1.35;;;1.35;;
13197;SDS011;6664;52.514;13.440;2023-06-22T14:25:21;1.38;;;1.38;;
13197;SDS011;6664;52.514;13.440;2023-06-22T14:28:06;1.40;;;1.40;;
13197;SDS011;6664;52.514;13.440;2023-06-22T14:30:55;3.30;;;1.40;;
13197;SDS011;6664;52.514;13.440;2023-06-22T14:33:50;1.23;;;1.23;;
13197;SDS011;6664;52.514;13.440;2023-06-22T14:36:36;1.10;;;1.10;;
13197;SDS011;6664;52.514;13.440;2023-06-22T14:39:24;1.33;;;1.33;;
13197;SDS011;6664;52.514;13.440;2023-06-22T14:42:09;1.40;;;1.40;;
13197;SDS011;6664;52.514;13.440;2023-06-22T14:44:55;1.30;;;1.30;;
13197;SDS011;6664;52.514;13.440;2023-06-22T14:47:43;1.17;;;1.17;;
13197;SDS011;6664;52.514;13.440;2023-06-22T14:50:28;1.42;;;1.42;;
13197;SDS011;6664;52.514;13.440;2023-06-22T14:53:16;1.23;;;1.23;;
13197;SDS011;6664;52.514;13.440;2023-06-22T14:56:02;5.93;;;1.30;;
13197;SDS011;6664;52.514;13.440;2023-06-22T14:58:51;1.23;;;1.23;;
13197;SDS011;6664;52.514;13.440;2023-06-22T15:01:36;1.60;;;1.60;;
13197;SDS011;6664;52.514;13.440;2023-06-22T15:04:25;1.80;;;1.70;;
13197;SDS011;6664;52.514;13.440;2023-06-22T15:07:17;1.40;;;1.30;;
13197;SDS011;6664;52.514;13.440;2023-06-22T15:10:02;4.03;;;2.00;;
13197;SDS011;6664;52.514;13.440;2023-06-22T15:12:48;2.00;;;1.90;;
13197;SDS011;6664;52.514;13.440;2023-06-22T15:15:34;2.60;;;2.50;;
13197;SDS011;6664;52.514;13.440;2023-06-22T15:18:22;2.40;;;2.20;;
13197;SDS011;6664;52.514;13.440;2023-06-22T15:21:10;6.45;;;2.40;;
13197;SDS011;6664;52.514;13.440;2023-06-22T15:23:56;2.72;;;2.53;;
13197;SDS011;6664;52.514;13.440;2023-06-22T15:26:42;2.75;;;2.17;;
13197;SDS011;6664;52.514;13.440;2023-06-22T15:29:28;2.20;;;2.10;;
13197;SDS011;6664;52.514;13.440;2023-06-22T15:32:19;2.55;;;2.35;;
13197;SDS011;6664;52.514;13.440;2023-06-22T15:35:07;2.90;;;2.70;;
13197;SDS011;6664;52.514;13.440;2023-06-22T15:37:53;3.08;;;2.83;;
13197;SDS011;6664;52.514;13.440;2023-06-22T15:40:39;2.53;;;2.35;;
13197;SDS011;6664;52.514;13.440;2023-06-22T15:43:26;2.70;;;2.50;;
13197;SDS011;6664;52.514;13.440;2023-06-22T15:46:12;2.33;;;2.23;;
13197;SDS011;6664;52.514;13.440;2023-06-22T15:48:58;2.80;;;2.60;;
13197;SDS011;6664;52.514;13.440;2023-06-22T15:51:44;3.47;;;3.23;;
13197;SDS011;6664;52.514;13.440;2023-06-22T15:54:32;3.30;;;3.00;;
13197;SDS011;6664;52.514;13.440;2023-06-22T15:57:18;2.50;;;2.40;;
13197;SDS011;6664;52.514;13.440;2023-06-22T16:00:03;4.30;;;2.80;;
13197;SDS011;6664;52.514;13.440;2023-06-22T16:02:50;5.23;;;3.00;;
13197;SDS011;6664;52.514;13.440;2023-06-22T16:05:36;3.03;;;2.60;;
13197;SDS011;6664;52.514;13.440;2023-06-22T16:08:24;2.63;;;2.43;;
13197;SDS011;6664;52.514;13.440;2023-06-22T16:11:13;2.90;;;2.70;;
13197;SDS011;6664;52.514;13.440;2023-06-22T16:14:02;3.30;;;2.67;;
13197;SDS011;6664;52.514;13.440;2023-06-22T16:16:47;4.30;;;3.00;;
13197;SDS011;6664;52.514;13.440;2023-06-22T16:19:33;3.40;;;2.87;;
13197;SDS011;6664;52.514;13.440;2023-06-22T16:22:22;5.43;;;2.90;;
13197;SDS011;6664;52.514;13.440;2023-06-22T16:25:08;2.67;;;2.47;;
13197;SDS011;6664;52.514;13.440;2023-06-22T16:27:54;4.53;;;3.43;;
13197;SDS011;6664;52.514;13.440;2023-06-22T16:30:39;3.57;;;3.27;;
13197;SDS011;6664;52.514;13.440;2023-06-22T16:33:28;4.40;;;2.77;;
13197;SDS011;6664;52.514;13.440;2023-06-22T16:36:14;10.73;;;3.00;;
13197;SDS011;6664;52.514;13.440;2023-06-22T16:39:00;3.70;;;3.40;;
13197;SDS011;6664;52.514;13.440;2023-06-22T16:41:45;3.17;;;2.87;;
13197;SDS011;6664;52.514;13.440;2023-06-22T16:44:31;3.27;;;2.90;;
13197;SDS011;6664;52.514;13.440;2023-06-22T16:47:17;4.73;;;3.57;;
13197;SDS011;6664;52.514;13.440;2023-06-22T16:50:03;4.03;;;3.73;;
13197;SDS011;6664;52.514;13.440;2023-06-22T16:52:53;2.87;;;2.63;;